createdAt,value
2022-11-20T00:01:19.344Z,99351.81
2022-11-20T00:03:46.817Z,99339.94
2022-11-20T00:06:16.258Z,99345.16
2022-11-20T00:08:43.627Z,99348.56
2022-11-20T00:11:16.055Z,99341.78
2022-11-20T00:13:48.066Z,99348.72
2022-11-20T00:16:17.016Z,99345.25
2022-11-20T00:18:44.853Z,99351.97
2022-11-20T00:21:14.499Z,99346.88
2022-11-20T00:23:42.447Z,99348.50
2022-11-20T00:26:11.211Z,99353.56
2022-11-20T00:28:38.262Z,99352.72
2022-11-20T00:31:23.354Z,99349.69
2022-11-20T00:33:50.482Z,99344.16
2022-11-20T00:36:23.134Z,99351.97
2022-11-20T00:38:54.555Z,99352.88
2022-11-20T00:41:21.831Z,99348.50
2022-11-20T00:43:48.652Z,99350.91
2022-11-20T00:46:17.920Z,99355.31
2022-11-20T00:48:45.997Z,99355.97
2022-11-20T00:51:16.154Z,99345.81
2022-11-20T00:53:43.692Z,99357.59
2022-11-20T00:56:15.655Z,99351.78
2022-11-20T00:58:44.479Z,99349.84
2022-11-20T01:01:17.339Z,99350.81
2022-11-20T01:03:46.159Z,99351.47
2022-11-20T01:06:19.375Z,99359.00
2022-11-20T01:08:46.623Z,99361.38
2022-11-20T01:11:19.391Z,99355.56
2022-11-20T01:13:47.784Z,99352.78
2022-11-20T01:16:20.201Z,99358.00
2022-11-20T01:18:49.522Z,99359.41
2022-11-20T01:21:19.279Z,99355.13
2022-11-20T01:23:46.903Z,99356.59
2022-11-20T01:26:20.202Z,99358.41
2022-11-20T01:28:47.178Z,99358.22
2022-11-20T01:31:18.004Z,99359.13
2022-11-20T01:33:46.631Z,99360.66
2022-11-20T01:36:14.686Z,99365.72
2022-11-20T01:38:42.100Z,99359.66
2022-11-20T01:41:10.121Z,99362.91
2022-11-20T01:43:36.789Z,99357.84
2022-11-20T01:46:16.288Z,99363.97
2022-11-20T01:48:55.516Z,99372.28
2022-11-20T01:51:29.182Z,99374.00
2022-11-20T01:54:00.535Z,99370.53
2022-11-20T01:56:28.939Z,99385.63
2022-11-20T01:58:59.376Z,99384.06
2022-11-20T02:01:26.383Z,99385.53
2022-11-20T02:03:54.497Z,99392.31
2022-11-20T02:06:26.812Z,99403.53
2022-11-20T02:08:53.684Z,99398.31
2022-11-20T02:11:20.459Z,99396.63
2022-11-20T02:13:47.781Z,99397.41
2022-11-20T02:16:27.077Z,99401.00
2022-11-20T02:18:56.056Z,99399.00
2022-11-20T02:21:31.111Z,99405.84
2022-11-20T02:24:13.602Z,99404.94
2022-11-20T02:26:54.359Z,99415.00
2022-11-20T02:29:40.947Z,99415.72
2022-11-20T02:32:07.707Z,99415.47
2022-11-20T02:34:34.390Z,99416.31
2022-11-20T02:37:01.232Z,99422.16
2022-11-20T02:39:29.447Z,99424.75
2022-11-20T02:41:56.971Z,99414.53
2022-11-20T02:44:23.816Z,99417.06
2022-11-20T02:46:50.474Z,99417.06
2022-11-20T02:49:18.108Z,99417.06
2022-11-20T02:51:44.998Z,99419.63
2022-11-20T02:54:11.727Z,99426.41
2022-11-20T02:56:40.121Z,99424.00
2022-11-20T02:59:07.487Z,99417.19
2022-11-20T03:01:34.673Z,99415.47
2022-11-20T03:04:01.488Z,99423.88
2022-11-20T03:06:28.499Z,99417.06
2022-11-20T03:08:55.237Z,99416.25
2022-11-20T03:11:21.941Z,99417.94
2022-11-20T03:13:48.711Z,99418.78
2022-11-20T03:16:21.265Z,99432.56
2022-11-20T03:18:48.124Z,99438.16
2022-11-20T03:21:16.147Z,99437.25
2022-11-20T03:23:42.970Z,99434.47
2022-11-20T03:26:13.367Z,99430.31
2022-11-20T03:28:40.147Z,99440.31
2022-11-20T03:31:15.152Z,99426.28
2022-11-20T03:33:42.953Z,99441.25
2022-11-20T03:36:12.797Z,99425.22
2022-11-20T03:38:39.926Z,99438.69
2022-11-20T03:41:18.786Z,99435.50
2022-11-20T03:43:50.707Z,99436.38
2022-11-20T03:46:17.453Z,99434.94
2022-11-20T03:48:48.775Z,99439.31
2022-11-20T03:51:20.691Z,99442.69
2022-11-20T03:53:48.772Z,99441.78
2022-11-20T03:56:17.617Z,99447.00
2022-11-20T03:58:44.725Z,99450.31
2022-11-20T04:01:14.874Z,99452.06
2022-11-20T04:03:43.189Z,99457.94
2022-11-20T04:06:13.215Z,99454.53
2022-11-20T04:08:40.951Z,99461.16
2022-11-20T04:11:20.216Z,99462.22
2022-11-20T04:13:49.049Z,99463.69
2022-11-20T04:16:16.342Z,99461.22
2022-11-20T04:18:44.310Z,99470.56
2022-11-20T04:21:11.959Z,99471.56
2022-11-20T04:23:39.688Z,99475.84
2022-11-20T04:26:09.759Z,99473.31
2022-11-20T04:28:37.040Z,99484.25
2022-11-20T04:31:06.712Z,99481.72
2022-11-20T04:33:34.657Z,99478.16
2022-11-20T04:36:06.879Z,99478.25
2022-11-20T04:38:33.870Z,99483.19
2022-11-20T04:41:16.503Z,99491.22
2022-11-20T04:43:48.395Z,99492.53
2022-11-20T04:46:15.072Z,99499.63
2022-11-20T04:48:41.945Z,99506.75
2022-11-20T04:51:08.629Z,99518.66
2022-11-20T04:53:35.277Z,99511.13
2022-11-20T04:56:03.422Z,99516.31
2022-11-20T04:58:30.508Z,99517.19
2022-11-20T05:01:15.487Z,99518.31
2022-11-20T05:03:43.575Z,99523.94
2022-11-20T05:06:15.535Z,99521.38
2022-11-20T05:08:42.551Z,99519.94
2022-11-20T05:11:12.255Z,99522.75
2022-11-20T05:13:39.577Z,99526.44
2022-11-20T05:16:09.307Z,99529.72
2022-11-20T05:18:37.384Z,99535.47
2022-11-20T05:21:04.480Z,99525.22
2022-11-20T05:23:32.585Z,99535.47
2022-11-20T05:25:59.989Z,99541.41
2022-11-20T05:28:28.717Z,99543.94
2022-11-20T05:30:55.600Z,99550.06
2022-11-20T05:33:22.953Z,99545.75
2022-11-20T05:35:49.926Z,99546.44
2022-11-20T05:38:16.947Z,99555.69
2022-11-20T05:40:43.767Z,99562.47
2022-11-20T05:43:10.602Z,99563.06
2022-11-20T05:45:37.312Z,99563.94
2022-11-20T05:48:04.391Z,99569.16
2022-11-20T05:50:31.419Z,99567.16
2022-11-20T05:53:01.334Z,99580.63
2022-11-20T05:55:28.570Z,99583.69
2022-11-20T05:57:55.947Z,99587.06
2022-11-20T06:00:23.430Z,99589.69
2022-11-20T06:02:50.440Z,99594.75
2022-11-20T06:05:17.383Z,99603.91
2022-11-20T06:07:44.026Z,99596.91
2022-11-20T06:10:11.574Z,99593.44
2022-11-20T06:12:39.359Z,99595.19
2022-11-20T06:15:06.887Z,99600.28
2022-11-20T06:17:33.579Z,99601.88
2022-11-20T06:20:00.321Z,99615.34
2022-11-20T06:22:26.967Z,99619.44
2022-11-20T06:24:53.676Z,99623.66
2022-11-20T06:27:20.332Z,99633.06
2022-11-20T06:29:47.027Z,99630.66
2022-11-20T06:32:13.679Z,99629.16
2022-11-20T06:34:40.317Z,99634.28
2022-11-20T06:37:06.984Z,99631.75
2022-11-20T06:39:33.672Z,99627.53
2022-11-20T06:42:00.314Z,99627.69
2022-11-20T06:44:27.223Z,99629.56
2022-11-20T06:46:53.931Z,99623.78
2022-11-20T06:49:21.063Z,99624.63
2022-11-20T06:51:48.053Z,99619.81
2022-11-20T06:54:14.790Z,99625.03
2022-11-20T06:56:41.398Z,99629.13
2022-11-20T06:59:08.456Z,99623.03
2022-11-20T07:01:36.230Z,99631.44
2022-11-20T07:04:04.173Z,99624.91
2022-11-20T07:06:31.212Z,99617.28
2022-11-20T07:08:58.127Z,99611.25
2022-11-20T07:11:24.867Z,99620.72
2022-11-20T07:13:51.527Z,99633.69
2022-11-20T07:16:18.325Z,99624.53
2022-11-20T07:18:50.221Z,99636.78
2022-11-20T07:21:17.733Z,99639.09
2022-11-20T07:23:44.431Z,99633.06
2022-11-20T07:26:12.050Z,99628.00
2022-11-20T07:28:39.429Z,99636.56
2022-11-20T07:31:07.884Z,99640.03
2022-11-20T07:33:34.712Z,99640.84
2022-11-20T07:36:01.863Z,99639.25
2022-11-20T07:38:29.194Z,99637.50
2022-11-20T07:40:57.430Z,99647.38
2022-11-20T07:43:25.099Z,99653.41
2022-11-20T07:45:52.211Z,99647.31
2022-11-20T07:48:18.899Z,99647.38
2022-11-20T07:50:45.639Z,99659.22
2022-11-20T07:53:13.769Z,99654.06
2022-11-20T07:55:40.639Z,99650.72
2022-11-20T07:58:07.311Z,99649.00
2022-11-20T08:00:34.095Z,99652.19
2022-11-20T08:03:04.627Z,99667.56
2022-11-20T08:05:31.523Z,99664.09
2022-11-20T08:07:58.268Z,99659.00
2022-11-20T08:10:25.128Z,99657.28
2022-11-20T08:13:12.431Z,99671.72
2022-11-20T08:15:40.829Z,99682.88
2022-11-20T08:18:30.137Z,99674.66
2022-11-20T08:20:55.524Z,99664.91
2022-11-20T08:23:24.275Z,99662.66
2022-11-20T08:25:52.121Z,99666.94
2022-11-20T08:28:21.769Z,99674.56
2022-11-20T08:30:49.807Z,99679.72
2022-11-20T08:33:18.343Z,99679.63
2022-11-20T08:35:45.232Z,99693.69
2022-11-20T08:38:12.027Z,99686.59
2022-11-20T08:40:38.680Z,99679.63
2022-11-20T08:43:05.427Z,99686.28
2022-11-20T08:45:34.686Z,99685.16
2022-11-20T08:48:03.569Z,99682.38
2022-11-20T08:50:32.718Z,99689.84
2022-11-20T08:53:06.478Z,99702.84
2022-11-20T08:55:33.587Z,99709.22
2022-11-20T08:58:05.249Z,99710.03
2022-11-20T09:00:33.418Z,99723.31
2022-11-20T09:03:01.902Z,99723.59
2022-11-20T09:05:28.863Z,99727.81
2022-11-20T09:07:59.347Z,99734.63
2022-11-20T09:10:29.177Z,99734.50
2022-11-20T09:12:56.428Z,99736.06
2022-11-20T09:15:24.364Z,99747.81
2022-11-20T09:17:59.213Z,99741.16
2022-11-20T09:20:27.435Z,99746.09
2022-11-20T09:22:54.391Z,99757.56
2022-11-20T09:25:21.447Z,99762.78
2022-11-20T09:27:48.393Z,99774.56
2022-11-20T09:30:16.213Z,99769.56
2022-11-20T09:32:43.852Z,99782.09
2022-11-20T09:35:11.739Z,99783.63
2022-11-20T09:37:39.021Z,99780.34
2022-11-20T09:40:06.336Z,99783.81
2022-11-20T09:42:46.207Z,99777.31
2022-11-20T09:45:36.340Z,99779.22
2022-11-20T09:48:19.023Z,99773.91
2022-11-20T09:51:34.212Z,99771.50
2022-11-20T09:54:21.830Z,99770.72
2022-11-20T09:56:57.544Z,99775.53
2022-11-20T09:59:32.988Z,99779.16
2022-11-20T10:02:01.679Z,99779.16
2022-11-20T10:04:34.590Z,99782.72
2022-11-20T10:07:51.560Z,99791.78
2022-11-20T10:10:30.229Z,99792.44
2022-11-20T10:13:11.812Z,99790.72
2022-11-20T10:15:44.463Z,99788.25
2022-11-20T10:18:23.187Z,99797.16
2022-11-20T10:20:56.667Z,99796.91
2022-11-20T10:23:43.817Z,99806.66
2022-11-20T10:26:45.931Z,99798.56
2022-11-20T10:29:19.272Z,99798.28
2022-11-20T10:31:52.180Z,99799.22
2022-11-20T10:34:43.785Z,99800.66
2022-11-20T10:37:16.240Z,99798.34
2022-11-20T10:39:46.719Z,99803.72
2022-11-20T10:42:18.796Z,99807.75
2022-11-20T10:45:05.723Z,99804.97
2022-11-20T10:47:33.438Z,99791.25
2022-11-20T10:50:07.279Z,99804.84
2022-11-20T10:52:39.291Z,99815.88
2022-11-20T10:55:30.481Z,99822.97
2022-11-20T10:58:12.557Z,99823.06
2022-11-20T11:00:39.456Z,99818.50
2022-11-20T11:03:29.943Z,99806.63
2022-11-20T11:06:05.111Z,99822.31
2022-11-20T11:08:38.767Z,99832.06
2022-11-20T11:11:23.941Z,99834.53
2022-11-20T11:13:51.576Z,99832.41
2022-11-20T11:16:26.461Z,99835.97
2022-11-20T11:19:04.556Z,99830.56
2022-11-20T11:21:31.669Z,99839.03
2022-11-20T11:24:19.721Z,99836.84
2022-11-20T11:27:17.559Z,99836.41
2022-11-20T11:29:45.329Z,99841.63
2022-11-20T11:32:19.365Z,99836.53
2022-11-20T11:34:46.264Z,99835.97
2022-11-20T11:37:22.562Z,99832.91
2022-11-20T11:40:03.965Z,99848.78
2022-11-20T11:42:42.577Z,99841.06
2022-11-20T11:45:18.284Z,99843.94
2022-11-20T11:47:49.232Z,99840.03
2022-11-20T11:50:19.203Z,99841.91
2022-11-20T11:53:04.167Z,99856.66
2022-11-20T11:55:45.983Z,99856.97
2022-11-20T11:58:30.907Z,99864.56
2022-11-20T12:01:04.751Z,99856.03
2022-11-20T12:03:44.867Z,99852.16
2022-11-20T12:06:15.119Z,99860.50
2022-11-20T12:09:10.212Z,99864.13
2022-11-20T12:11:59.955Z,99861.03
2022-11-20T12:14:50.785Z,99860.28
2022-11-20T12:17:19.112Z,99860.22
2022-11-20T12:19:45.947Z,99862.66
2022-11-20T12:22:18.363Z,99860.13
2022-11-20T12:25:03.313Z,99857.47
2022-11-20T12:27:53.133Z,99851.19
2022-11-20T12:30:21.344Z,99848.13
2022-11-20T12:33:18.415Z,99850.97
2022-11-20T12:35:57.154Z,99856.19
2022-11-20T12:38:51.407Z,99837.19
2022-11-20T12:41:42.409Z,99850.63
2022-11-20T12:44:33.819Z,99865.59
2022-11-20T12:47:26.688Z,99859.59
2022-11-20T12:51:08.023Z,99844.88
2022-11-20T12:53:48.209Z,99868.56
2022-11-20T12:56:33.269Z,99873.06
2022-11-20T12:59:13.154Z,99878.06
2022-11-20T13:02:18.253Z,99873.16
2022-11-20T13:05:04.711Z,99868.50
2022-11-20T13:07:32.851Z,99864.06
2022-11-20T13:10:01.228Z,99861.09
2022-11-20T13:12:35.401Z,99866.38
2022-11-20T13:15:17.124Z,99868.75
2022-11-20T13:17:52.985Z,99855.41
2022-11-20T13:20:20.501Z,99862.34
2022-11-20T13:22:56.026Z,99868.19
2022-11-20T13:25:27.000Z,99879.34
2022-11-20T13:27:54.472Z,99887.13
2022-11-20T13:30:23.798Z,99890.28
2022-11-20T13:33:24.144Z,99885.19
2022-11-20T13:36:01.191Z,99886.31
2022-11-20T13:38:33.862Z,99888.94
2022-11-20T13:41:23.198Z,99882.78
2022-11-20T13:43:49.985Z,99878.50
2022-11-20T13:46:16.838Z,99884.28
2022-11-20T13:48:47.975Z,99892.06
2022-11-20T13:51:35.994Z,99893.50
2022-11-20T13:54:19.099Z,99887.69
2022-11-20T13:56:54.918Z,99896.09
2022-11-20T14:00:18.975Z,99900.19
2022-11-20T14:03:02.037Z,99899.53
2022-11-20T14:05:31.827Z,99898.59
2022-11-20T14:07:59.079Z,99900.19
2022-11-20T14:10:32.120Z,99897.69
2022-11-20T14:12:59.897Z,99906.56
2022-11-20T14:15:37.341Z,99915.56
2022-11-20T14:18:15.877Z,99919.69
2022-11-20T14:20:44.098Z,99929.34
2022-11-20T14:23:11.913Z,99925.63
2022-11-20T14:25:42.930Z,99931.34
2022-11-20T14:28:24.570Z,99919.91
2022-11-20T14:30:51.380Z,99916.47
2022-11-20T14:33:18.384Z,99931.09
2022-11-20T14:35:50.399Z,99937.22
2022-11-20T14:38:21.196Z,99937.03
2022-11-20T14:40:47.980Z,99944.44
2022-11-20T14:43:29.412Z,99949.91
2022-11-20T14:46:01.552Z,99960.78
2022-11-20T14:48:38.020Z,99962.22
2022-11-20T14:51:05.107Z,99961.06
2022-11-20T14:53:31.763Z,99951.09
2022-11-20T14:56:00.820Z,99943.47
2022-11-20T14:58:34.301Z,99952.72
2022-11-20T15:01:04.508Z,99951.69
2022-11-20T15:03:39.585Z,99937.63
2022-11-20T15:06:12.977Z,99947.34
2022-11-20T15:08:39.657Z,99948.94
2022-11-20T15:11:24.752Z,99951.47
2022-11-20T15:13:51.554Z,99945.88
2022-11-20T15:16:23.119Z,99951.47
2022-11-20T15:18:50.032Z,99937.00
2022-11-20T15:21:19.376Z,99936.22
2022-11-20T15:23:46.125Z,99933.53
2022-11-20T15:26:19.917Z,99920.00
2022-11-20T15:28:48.865Z,99922.78
2022-11-20T15:31:19.285Z,99925.56
2022-11-20T15:33:47.471Z,99929.63
2022-11-20T15:36:14.211Z,99925.56
2022-11-20T15:38:41.322Z,99935.88
2022-11-20T15:41:08.652Z,99935.16
2022-11-20T15:43:35.669Z,99941.28
2022-11-20T15:46:10.294Z,99934.88
2022-11-20T15:48:49.045Z,99930.91
2022-11-20T15:51:38.325Z,99936.78
2022-11-20T15:54:15.635Z,99927.13
2022-11-20T15:56:42.547Z,99925.69
2022-11-20T15:59:09.230Z,99928.31
2022-11-20T16:01:36.376Z,99936.19
2022-11-20T16:04:03.234Z,99955.69
2022-11-20T16:06:29.924Z,99955.69
2022-11-20T16:08:56.630Z,99947.28
2022-11-20T16:11:23.305Z,99948.06
2022-11-20T16:14:08.649Z,99938.06
2022-11-20T16:16:37.988Z,99931.31
2022-11-20T16:19:05.216Z,99929.50
2022-11-20T16:21:32.459Z,99929.50
2022-11-20T16:24:05.669Z,99921.38
2022-11-20T16:26:33.211Z,99905.97
2022-11-20T16:29:01.192Z,99907.56
2022-11-20T16:31:27.934Z,99915.97
2022-11-20T16:33:57.725Z,99923.94
2022-11-20T16:36:26.806Z,99925.72
2022-11-20T16:38:55.420Z,99928.44
2022-11-20T16:41:23.218Z,99925.16
2022-11-20T16:43:52.892Z,99924.38
2022-11-20T16:46:22.376Z,99932.16
2022-11-20T16:49:00.487Z,99931.56
2022-11-20T16:51:28.969Z,99924.53
2022-11-20T16:53:56.355Z,99935.63
2022-11-20T16:56:26.114Z,99924.66
2022-11-20T16:58:55.569Z,99928.16
2022-11-20T17:01:24.962Z,99935.06
2022-11-20T17:03:56.247Z,99938.63
2022-11-20T17:06:25.754Z,99930.13
2022-11-20T17:08:54.831Z,99924.16
2022-11-20T17:11:22.111Z,99925.31
2022-11-20T17:13:49.623Z,99910.78
2022-11-20T17:16:21.736Z,99915.13
2022-11-20T17:18:51.804Z,99910.41
2022-11-20T17:21:19.828Z,99918.47
2022-11-20T17:23:47.555Z,99918.16
2022-11-20T17:26:17.962Z,99928.09
2022-11-20T17:28:46.636Z,99921.94
2022-11-20T17:31:16.204Z,99922.53
2022-11-20T17:33:44.669Z,99923.66
2022-11-20T17:36:13.354Z,99921.94
2022-11-20T17:38:40.189Z,99932.78
2022-11-20T17:41:10.128Z,99945.72
2022-11-20T17:43:37.443Z,99944.88
2022-11-20T17:46:13.539Z,99938.91
2022-11-20T17:48:44.313Z,99940.50
2022-11-20T17:51:16.342Z,99932.22
2022-11-20T17:53:45.687Z,99931.34
2022-11-20T17:56:31.475Z,99947.34
2022-11-20T17:58:58.614Z,99948.28
2022-11-20T18:01:25.463Z,99940.31
2022-11-20T18:03:52.396Z,99936.91
2022-11-20T18:06:23.710Z,99949.06
2022-11-20T18:08:51.448Z,99938.91
2022-11-20T18:11:24.507Z,99918.88
2022-11-20T18:14:12.603Z,99915.53
2022-11-20T18:16:44.945Z,99928.47
2022-11-20T18:19:14.387Z,99934.53
2022-11-20T18:21:42.011Z,99928.72
2022-11-20T18:24:09.613Z,99927.19
2022-11-20T18:26:42.806Z,99934.91
2022-11-20T18:29:11.866Z,99930.13
2022-11-20T18:31:38.752Z,99943.63
2022-11-20T18:34:06.781Z,99950.59
2022-11-20T18:36:33.644Z,99952.63
2022-11-20T18:39:01.670Z,99949.00
2022-11-20T18:41:49.386Z,99947.09
2022-11-20T18:44:39.380Z,99947.00
2022-11-20T18:47:14.041Z,99945.34
2022-11-20T18:49:42.651Z,99944.69
2022-11-20T18:52:09.388Z,99947.41
2022-11-20T18:54:37.028Z,99944.13
2022-11-20T18:57:04.928Z,99942.59
2022-11-20T18:59:32.142Z,99937.53
2022-11-20T19:01:59.051Z,99934.81
2022-11-20T19:04:26.040Z,99936.50
2022-11-20T19:06:56.237Z,99937.53
2022-11-20T19:09:24.172Z,99929.97
2022-11-20T19:11:52.252Z,99928.38
2022-11-20T19:14:19.001Z,99931.00
2022-11-20T19:16:46.321Z,99908.09
2022-11-20T19:19:12.993Z,99904.03
2022-11-20T19:21:41.018Z,99909.91
2022-11-20T19:24:07.892Z,99908.25
2022-11-20T19:26:36.534Z,99905.84
2022-11-20T19:29:06.758Z,99890.75
2022-11-20T19:31:33.904Z,99894.81
2022-11-20T19:34:12.229Z,99901.78
2022-11-20T19:36:56.761Z,99902.78
2022-11-20T19:39:25.281Z,99911.09
2022-11-20T19:41:55.177Z,99905.72
2022-11-20T19:44:22.020Z,99899.63
2022-11-20T19:46:48.737Z,99904.53
2022-11-20T19:49:15.474Z,99902.09
2022-11-20T19:51:47.926Z,99895.56
2022-11-20T19:54:15.050Z,99902.09
2022-11-20T19:56:41.757Z,99910.50
2022-11-20T19:59:08.464Z,99918.19
2022-11-20T20:01:35.613Z,99933.44
2022-11-20T20:04:05.536Z,99925.03
2022-11-20T20:06:35.100Z,99909.03
2022-11-20T20:09:08.215Z,99934.63
2022-11-20T20:11:35.872Z,99942.03
2022-11-20T20:14:08.605Z,99955.69
2022-11-20T20:16:35.561Z,99957.84
2022-11-20T20:19:03.952Z,99946.81
2022-11-20T20:21:32.743Z,99950.88
2022-11-20T20:24:00.035Z,99948.19
2022-11-20T20:26:28.738Z,99945.72
2022-11-20T20:28:56.048Z,99942.31
2022-11-20T20:31:25.039Z,99942.41
2022-11-20T20:33:51.908Z,99944.03
2022-11-20T20:36:20.509Z,99942.44
2022-11-20T20:38:47.826Z,99947.53
2022-11-20T20:41:18.686Z,99939.13
2022-11-20T20:44:04.095Z,99939.13
2022-11-20T20:46:31.030Z,99930.84
2022-11-20T20:48:57.912Z,99932.44
2022-11-20T20:51:24.708Z,99930.72
2022-11-20T20:53:51.509Z,99941.66
2022-11-20T20:56:18.808Z,99950.16
2022-11-20T20:58:45.493Z,99954.38
2022-11-20T21:01:15.602Z,99956.13
2022-11-20T21:03:45.806Z,99955.25
2022-11-20T21:06:12.857Z,99958.72
2022-11-20T21:08:41.077Z,99952.78
2022-11-20T21:11:12.128Z,99954.53
2022-11-20T21:13:40.508Z,99952.78
2022-11-20T21:16:07.809Z,99949.28
2022-11-20T21:18:35.252Z,99945.06
2022-11-20T21:21:24.462Z,99941.81
2022-11-20T21:23:53.333Z,99952.63
2022-11-20T21:26:20.836Z,99961.06
2022-11-20T21:28:48.156Z,99957.56
2022-11-20T21:31:24.885Z,99965.28
2022-11-20T21:33:54.112Z,99955.81
2022-11-20T21:36:23.243Z,99956.69
2022-11-20T21:38:52.193Z,99947.41
2022-11-20T21:41:18.952Z,99940.47
2022-11-20T21:43:48.951Z,99938.69
2022-11-20T21:46:21.604Z,99930.22
2022-11-20T21:48:48.434Z,99939.47
2022-11-20T21:51:20.819Z,99930.97
2022-11-20T21:53:49.096Z,99928.34
2022-11-20T21:56:20.617Z,99933.44
2022-11-20T21:58:48.639Z,99929.94
2022-11-20T22:01:18.701Z,99937.72
2022-11-20T22:03:54.065Z,99945.44
2022-11-20T22:06:21.563Z,99951.16
2022-11-20T22:08:49.032Z,99957.03
2022-11-20T22:11:19.220Z,99948.69
2022-11-20T22:14:05.047Z,99947.59
2022-11-20T22:16:34.062Z,99940.84
2022-11-20T22:19:00.938Z,99940.84
2022-11-20T22:21:29.492Z,99941.72
2022-11-20T22:23:56.704Z,99945.03
2022-11-20T22:26:28.911Z,99940.19
2022-11-20T22:28:57.558Z,99943.44
2022-11-20T22:31:26.774Z,99952.03
2022-11-20T22:33:53.537Z,99950.13
2022-11-20T22:36:25.817Z,99948.69
2022-11-20T22:38:52.804Z,99942.50
2022-11-20T22:41:22.034Z,99934.88
2022-11-20T22:43:54.287Z,99930.09
2022-11-20T22:46:21.042Z,99930.81
2022-11-20T22:49:09.844Z,99936.91
2022-11-20T22:51:41.308Z,99935.13
2022-11-20T22:54:10.675Z,99931.38
2022-11-20T22:56:37.328Z,99932.03
2022-11-20T22:59:04.572Z,99925.19
2022-11-20T23:01:36.730Z,99924.41
2022-11-20T23:04:09.731Z,99921.13
2022-11-20T23:06:36.459Z,99914.97
2022-11-20T23:09:05.202Z,99910.78
2022-11-20T23:11:32.812Z,99912.38
2022-11-20T23:14:02.307Z,99909.00
2022-11-20T23:16:30.845Z,99900.44
2022-11-20T23:19:15.858Z,99891.53
2022-11-20T23:21:42.912Z,99887.50
2022-11-20T23:24:10.080Z,99882.28
2022-11-20T23:26:39.192Z,99900.16
2022-11-20T23:29:06.793Z,99892.38
2022-11-20T23:31:35.209Z,99900.00
2022-11-20T23:34:02.332Z,99899.84
2022-11-20T23:36:29.182Z,99898.13
2022-11-20T23:38:55.950Z,99894.75
2022-11-20T23:41:22.690Z,99900.56
2022-11-20T23:43:49.500Z,99906.50
2022-11-20T23:46:16.992Z,99892.88
2022-11-20T23:48:45.424Z,99889.50
2022-11-20T23:51:12.995Z,99886.19
2022-11-20T23:53:39.978Z,99884.44
2022-11-20T23:56:06.805Z,99881.13
2022-11-20T23:58:38.530Z,99882.28
